Time;durP1;ratioP1;P1;durP2;ratioP2;P2;SDS_P1;SDS_P2;PMS_P1;PMS_P2;Temp;Humidity;BMP_temperature;BMP_pressure;BME280_temperature;BME280_humidity;BME280_pressure;Samples;Min_cycle;Max_cycle;Signal;HPM_P1;HPM_P2
2022/08/18 00:09:08;;;;;;;0.60;0.40;;;;;;;;;;21000983;28;20052;-55
2022/08/18 00:19:10;;;;;;;0.82;0.50;;;;;;;;;;21002620;28;20055;-56
2022/08/18 00:29:12;;;;;;;1.85;0.60;;;;;;;;;;21002227;28;20110;-55
2022/08/18 00:39:14;;;;;;;1.48;0.57;;;;;;;;;;21000188;28;20123;-56
2022/08/18 00:49:17;;;;;;;1.17;0.50;;;;;;;;;;20999688;28;20052;-56
2022/08/18 00:59:33;;;;;;;1.25;0.60;;;;;;;;;;20999179;28;20076;-58
2022/08/18 01:09:35;;;;;;;1.83;0.80;;;;;;;;;;20999123;28;20492;-57
2022/08/18 01:30:03;;;;;;;2.08;0.85;;;;;;;;;;20995918;28;20048;-56
2022/08/18 01:40:08;;;;;;;3.00;0.70;;;;;;;;;;20996179;28;20084;-56
2022/08/18 01:50:14;;;;;;;2.00;0.63;;;;;;;;;;20995656;28;20076;-55
2022/08/18 02:00:18;;;;;;;1.48;0.90;;;;;;;;;;20994654;28;20045;-57
2022/08/18 02:10:26;;;;;;;1.80;0.70;;;;;;;;;;20995049;28;20060;-57
2022/08/18 02:20:31;;;;;;;0.95;0.60;;;;;;;;;;20994245;28;20052;-57
2022/08/18 02:30:38;;;;;;;2.80;0.80;;;;;;;;;;20997224;28;20053;-56
2022/08/18 02:40:41;;;;;;;1.55;0.73;;;;;;;;;;21009330;28;20057;-58
2022/08/18 02:50:48;;;;;;;1.42;0.60;;;;;;;;;;21009021;28;20441;-57
2022/08/18 03:00:51;;;;;;;1.98;0.93;;;;;;;;;;21007783;28;20044;-56
2022/08/18 03:10:54;;;;;;;2.07;0.80;;;;;;;;;;21007302;28;20052;-56
2022/08/18 03:21:01;;;;;;;1.45;0.70;;;;;;;;;;21006912;28;20052;-55
2022/08/18 03:31:04;;;;;;;3.03;0.98;;;;;;;;;;21005861;28;20053;-55
2022/08/18 03:41:07;;;;;;;2.60;0.77;;;;;;;;;;21003617;28;20143;-55
2022/08/18 03:51:09;;;;;;;;;;;;;;;;;;21004500;28;20044;-56
2022/08/18 04:01:16;;;;;;;2.03;0.70;;;;;;;;;;21004034;28;19920;-57
2022/08/18 04:11:19;;;;;;;1.90;1.15;;;;;;;;;;21003321;28;20419;-57
2022/08/18 04:21:22;;;;;;;1.73;0.97;;;;;;;;;;21001534;28;20048;-57
2022/08/18 04:31:25;;;;;;;2.03;0.87;;;;;;;;;;21000694;28;20297;-56
2022/08/18 04:41:28;;;;;;;3.27;1.07;;;;;;;;;;20999674;28;20049;-56
2022/08/18 04:51:30;;;;;;;1.77;0.83;;;;;;;;;;20999236;28;20044;-57
2022/08/18 05:01:37;;;;;;;1.88;1.05;;;;;;;;;;20996649;28;20074;-58
2022/08/18 05:11:43;;;;;;;1.95;0.80;;;;;;;;;;20996782;28;20508;-54
2022/08/18 05:21:45;;;;;;;1.23;0.75;;;;;;;;;;20995226;28;20053;-56
2022/08/18 05:31:48;;;;;;;2.17;0.70;;;;;;;;;;20995308;28;20045;-55
2022/08/18 05:41:54;;;;;;;2.80;1.40;;;;;;;;;;20994201;28;20170;-57
2022/08/18 05:51:59;;;;;;;4.10;0.90;;;;;;;;;;20996090;28;20040;-55
2022/08/18 06:02:10;;;;;;;2.90;1.00;;;;;;;;;;20991832;28;20408;-57
2022/08/18 06:12:24;;;;;;;5.22;1.50;;;;;;;;;;20993303;28;20049;-55
2022/08/18 06:22:35;;;;;;;1.88;0.82;;;;;;;;;;20991909;28;20139;-57
2022/08/18 06:32:47;;;;;;;1.90;0.93;;;;;;;;;;20992817;28;20044;-55
2022/08/18 06:42:50;;;;;;;3.25;1.33;;;;;;;;;;20992758;28;20504;-57
2022/08/18 06:52:54;;;;;;;1.85;1.00;;;;;;;;;;20991635;28;20129;-55
2022/08/18 07:03:02;;;;;;;2.85;0.80;;;;;;;;;;20990733;28;20060;-55
2022/08/18 07:13:16;;;;;;;1.75;0.90;;;;;;;;;;20991643;28;20189;-58
2022/08/18 07:23:23;;;;;;;3.40;1.20;;;;;;;;;;21001644;28;20045;-55
2022/08/18 07:33:25;;;;;;;2.75;1.52;;;;;;;;;;21004663;28;20117;-57
2022/08/18 07:43:37;;;;;;;4.00;1.40;;;;;;;;;;21003874;28;20568;-58
2022/08/18 07:53:58;;;;;;;4.93;1.65;;;;;;;;;;21004030;28;20081;-56
2022/08/18 08:04:01;;;;;;;5.28;1.20;;;;;;;;;;21001594;28;20052;-59
2022/08/18 08:14:21;;;;;;;4.53;1.37;;;;;;;;;;21001053;28;20450;-59
2022/08/18 08:24:46;;;;;;;2.75;1.35;;;;;;;;;;20999493;28;20049;-56
2022/08/18 08:34:55;;;;;;;2.72;1.05;;;;;;;;;;20995849;28;20080;-56
2022/08/18 08:45:00;;;;;;;1.48;0.70;;;;;;;;;;20998903;28;20492;-57
2022/08/18 08:55:09;;;;;;;4.03;1.08;;;;;;;;;;20997267;28;20106;-56
2022/08/18 09:05:16;;;;;;;3.47;0.90;;;;;;;;;;20996601;28;20048;-59
2022/08/18 09:15:24;;;;;;;2.95;1.10;;;;;;;;;;20996557;28;20405;-56
2022/08/18 09:25:40;;;;;;;3.75;1.23;;;;;;;;;;20995714;28;20118;-58
2022/08/18 09:35:48;;;;;;;3.00;1.17;;;;;;;;;;20995815;28;20437;-56
2022/08/18 09:45:51;;;;;;;7.07;1.00;;;;;;;;;;20995408;28;20405;-56
2022/08/18 09:55:56;;;;;;;4.32;1.15;;;;;;;;;;20995330;28;20473;-56
2022/08/18 10:06:12;;;;;;;5.18;2.55;;;;;;;;;;20994229;28;20048;-56
2022/08/18 10:16:42;;;;;;;1.98;0.77;;;;;;;;;;20994791;28;20091;-56
2022/08/18 10:26:50;;;;;;;3.20;1.17;;;;;;;;;;20994906;28;20106;-59
2022/08/18 10:36:56;;;;;;;4.25;1.20;;;;;;;;;;20993731;28;20048;-59
2022/08/18 10:47:00;;;;;;;3.13;1.23;;;;;;;;;;20993996;28;20052;-55
2022/08/18 10:57:13;;;;;;;2.42;1.05;;;;;;;;;;21004103;28;20091;-56
2022/08/18 11:07:23;;;;;;;1.50;0.90;;;;;;;;;;21007105;28;20139;-56
2022/08/18 11:17:30;;;;;;;2.25;0.70;;;;;;;;;;21006434;28;20052;-57
2022/08/18 11:27:34;;;;;;;3.65;0.93;;;;;;;;;;21006878;28;20056;-57
2022/08/18 11:37:40;;;;;;;1.77;0.80;;;;;;;;;;21005708;28;20119;-56
2022/08/18 11:48:01;;;;;;;2.75;0.88;;;;;;;;;;21004447;28;20055;-56
2022/08/18 11:58:05;;;;;;;1.10;0.60;;;;;;;;;;21004097;28;20052;-55
2022/08/18 12:08:18;;;;;;;2.05;0.57;;;;;;;;;;21002788;28;20087;-55
2022/08/18 12:18:20;;;;;;;2.05;0.80;;;;;;;;;;21004536;28;20420;-58
2022/08/18 12:28:22;;;;;;;1.80;0.90;;;;;;;;;;21001788;28;20053;-56
2022/08/18 12:38:24;;;;;;;;;;;;;;;;;;21001818;28;20083;-56
2022/08/18 12:48:28;;;;;;;1.93;0.90;;;;;;;;;;20999304;28;20284;-56
2022/08/18 12:58:30;;;;;;;1.95;0.80;;;;;;;;;;20999922;28;20378;-56
2022/08/18 13:08:34;;;;;;;2.22;0.70;;;;;;;;;;20998699;28;20349;-57
2022/08/18 13:18:36;;;;;;;1.45;0.90;;;;;;;;;;20997460;28;20048;-57
2022/08/18 13:28:39;;;;;;;2.03;0.65;;;;;;;;;;20996806;28;20056;-58
2022/08/18 13:38:42;;;;;;;1.42;0.50;;;;;;;;;;20996278;28;20088;-56
2022/08/18 13:48:44;;;;;;;2.15;0.57;;;;;;;;;;20995402;28;20051;-58
2022/08/18 13:58:48;;;;;;;1.60;0.55;;;;;;;;;;20996696;28;20045;-56
2022/08/18 14:08:51;;;;;;;2.70;0.60;;;;;;;;;;20995994;28;20450;-56
2022/08/18 14:29:15;;;;;;;1.80;1.00;;;;;;;;;;21001857;28;20056;-58
2022/08/18 14:39:17;;;;;;;2.05;0.98;;;;;;;;;;21010144;28;20049;-57
2022/08/18 14:49:20;;;;;;;1.63;0.60;;;;;;;;;;21008965;28;20059;-56
2022/08/18 14:59:23;;;;;;;0.70;0.40;;;;;;;;;;21010447;28;20508;-57
2022/08/18 15:09:28;;;;;;;3.10;0.70;;;;;;;;;;21008047;28;20106;-54
2022/08/18 15:19:30;;;;;;;1.60;0.50;;;;;;;;;;21006765;28;20127;-56
2022/08/18 15:29:34;;;;;;;1.95;0.75;;;;;;;;;;21007582;28;20415;-56
2022/08/18 15:39:38;;;;;;;3.70;1.48;;;;;;;;;;21004758;28;20044;-56
2022/08/18 15:49:40;;;;;;;1.10;0.60;;;;;;;;;;21004720;28;20078;-58
2022/08/18 15:59:42;;;;;;;3.92;2.70;;;;;;;;;;21004924;28;20044;-58
2022/08/18 16:09:45;;;;;;;3.42;1.08;;;;;;;;;;21003631;28;20063;-55
2022/08/18 16:19:48;;;;;;;2.38;1.20;;;;;;;;;;21002801;28;20136;-57
2022/08/18 16:29:51;;;;;;;1.73;0.60;;;;;;;;;;21001049;28;20067;-55
2022/08/18 16:39:53;;;;;;;3.50;1.42;;;;;;;;;;20998415;28;20084;-56
2022/08/18 16:49:56;;;;;;;1.17;0.80;;;;;;;;;;20998394;28;20048;-57
2022/08/18 17:10:18;;;;;;;2.07;0.80;;;;;;;;;;20997078;28;20510;-57
2022/08/18 17:20:20;;;;;;;2.63;0.82;;;;;;;;;;20997463;28;20076;-56
2022/08/18 17:30:26;;;;;;;9.20;8.30;;;;;;;;;;20997130;28;20061;-56
2022/08/18 17:40:37;;;;;;;0.88;0.50;;;;;;;;;;20993623;28;20048;-57
2022/08/18 18:01:03;;;;;;;1.10;0.60;;;;;;;;;;20993116;28;20049;-56
2022/08/18 18:11:10;;;;;;;2.35;1.05;;;;;;;;;;20992234;28;20056;-58
2022/08/18 18:21:14;;;;;;;0.73;0.50;;;;;;;;;;20992669;28;20484;-58
2022/08/18 18:31:23;;;;;;;2.10;0.70;;;;;;;;;;20993536;28;20456;-58
2022/08/18 18:41:26;;;;;;;1.63;0.77;;;;;;;;;;20993729;28;20056;-56
2022/08/18 18:51:31;;;;;;;3.05;0.80;;;;;;;;;;20992993;28;20052;-58
2022/08/18 19:01:59;;;;;;;1.63;0.70;;;;;;;;;;20992104;28;20048;-56
2022/08/18 19:12:19;;;;;;;3.65;0.82;;;;;;;;;;20994123;28;20049;-59
2022/08/18 19:22:26;;;;;;;1.33;0.83;;;;;;;;;;21006165;28;20048;-57
2022/08/18 19:32:34;;;;;;;2.33;0.90;;;;;;;;;;21006227;28;20052;-56
2022/08/18 19:42:36;;;;;;;1.67;0.90;;;;;;;;;;21005597;28;20428;-55
2022/08/18 19:52:57;;;;;;;2.13;1.35;;;;;;;;;;21004619;28;20040;-58
2022/08/18 20:03:14;;;;;;;2.05;1.20;;;;;;;;;;21004003;28;20480;-58
2022/08/18 20:13:17;;;;;;;2.30;1.25;;;;;;;;;;21004666;28;20504;-56
2022/08/18 20:23:30;;;;;;;3.53;1.23;;;;;;;;;;21001536;28;20053;-57
2022/08/18 20:33:35;;;;;;;3.60;1.30;;;;;;;;;;21002540;28;20072;-57
2022/08/18 20:43:38;;;;;;;4.47;1.92;;;;;;;;;;21000691;28;20420;-55
2022/08/18 20:53:55;;;;;;;4.03;1.55;;;;;;;;;;21000448;28;20109;-55
2022/08/18 21:03:57;;;;;;;3.20;1.20;;;;;;;;;;21000652;28;20048;-56
2022/08/18 21:14:02;;;;;;;;;;;;;;;;;;21001129;28;20149;-60
2022/08/18 21:24:04;;;;;;;3.25;1.42;;;;;;;;;;20998133;28;20335;-55
2022/08/18 21:34:08;;;;;;;3.05;1.25;;;;;;;;;;20996766;28;20044;-56
2022/08/18 21:44:23;;;;;;;5.45;1.00;;;;;;;;;;20996666;28;20485;-55
2022/08/18 21:54:44;;;;;;;2.05;1.02;;;;;;;;;;20996329;28;20052;-57
2022/08/18 22:04:49;;;;;;;5.40;0.80;;;;;;;;;;20995772;28;20058;-58
2022/08/18 22:15:10;;;;;;;4.80;0.90;;;;;;;;;;20995391;28;20051;-58
2022/08/18 22:25:32;;;;;;;1.85;0.88;;;;;;;;;;20995369;28;20056;-56
2022/08/18 22:35:55;;;;;;;1.57;0.73;;;;;;;;;;20995783;28;20041;-57
2022/08/18 22:46:17;;;;;;;1.85;0.80;;;;;;;;;;20995856;28;20061;-56
2022/08/18 22:56:40;;;;;;;2.57;0.93;;;;;;;;;;21009871;28;20051;-56
2022/08/18 23:06:57;;;;;;;4.32;1.15;;;;;;;;;;21008424;28;20171;-57
2022/08/18 23:17:10;;;;;;;2.17;0.93;;;;;;;;;;21008367;28;20432;-54
2022/08/18 23:27:22;;;;;;;1.98;0.90;;;;;;;;;;21007220;28;20083;-57
2022/08/18 23:37:32;;;;;;;2.20;1.15;;;;;;;;;;21006557;28;20080;-57
2022/08/18 23:47:35;;;;;;;2.27;0.87;;;;;;;;;;21005740;28;20059;-57
2022/08/18 23:57:37;;;;;;;1.75;0.85;;;;;;;;;;21004604;28;20544;-56
